createdAt,value
2023-01-31T00:00:54.057Z,0.60
2023-01-31T00:03:21.342Z,0.80
2023-01-31T00:05:48.649Z,0.95
2023-01-31T00:08:15.970Z,0.60
2023-01-31T00:10:43.386Z,0.77
2023-01-31T00:13:10.624Z,0.75
2023-01-31T00:15:38.298Z,0.63
2023-01-31T00:18:06.186Z,0.73
2023-01-31T00:20:33.453Z,0.98
2023-01-31T00:23:00.704Z,0.63
2023-01-31T00:25:27.934Z,0.65
2023-01-31T00:27:55.255Z,0.85
2023-01-31T00:30:22.484Z,0.80
2023-01-31T00:32:49.716Z,1.15
2023-01-31T00:35:18.117Z,0.73
2023-01-31T00:37:45.531Z,0.63
2023-01-31T00:40:12.812Z,0.60
2023-01-31T00:42:40.090Z,0.90
2023-01-31T00:45:07.860Z,0.70
2023-01-31T00:47:35.237Z,0.60
2023-01-31T00:50:03.002Z,0.75
2023-01-31T00:52:30.248Z,0.50
2023-01-31T00:54:57.564Z,0.63
2023-01-31T00:57:24.732Z,0.60
2023-01-31T00:59:51.935Z,0.70
2023-01-31T01:02:19.165Z,0.45
2023-01-31T01:04:46.402Z,0.60
2023-01-31T01:07:13.663Z,0.55
2023-01-31T01:09:40.904Z,0.60
2023-01-31T01:12:08.114Z,0.75
2023-01-31T01:14:35.559Z,0.35
2023-01-31T01:17:02.903Z,0.55
2023-01-31T01:19:30.087Z,0.80
2023-01-31T01:21:58.390Z,1.85
2023-01-31T01:24:25.710Z,0.70
2023-01-31T01:26:52.984Z,0.45
2023-01-31T01:29:44.422Z,0.65
2023-01-31T01:32:11.746Z,0.68
2023-01-31T01:34:39.132Z,0.68
2023-01-31T01:37:20.075Z,0.60
2023-01-31T01:39:50.617Z,0.70
2023-01-31T01:42:19.234Z,0.50
2023-01-31T01:44:46.471Z,1.05
2023-01-31T01:47:15.912Z,0.95
2023-01-31T01:49:43.423Z,0.60
2023-01-31T01:52:11.400Z,0.73
2023-01-31T01:54:45.196Z,0.80
2023-01-31T01:57:12.685Z,0.90
2023-01-31T01:59:42.944Z,0.60
2023-01-31T02:02:10.315Z,0.55
2023-01-31T02:04:38.793Z,0.90
2023-01-31T02:07:06.169Z,0.60
2023-01-31T02:09:52.507Z,0.57
2023-01-31T02:12:20.054Z,0.93
2023-01-31T02:14:48.008Z,0.60
2023-01-31T02:17:16.545Z,0.55
2023-01-31T02:19:43.712Z,0.60
2023-01-31T02:22:15.244Z,0.88
2023-01-31T02:24:57.430Z,0.60
2023-01-31T02:28:01.957Z,1.00
2023-01-31T02:30:35.305Z,0.77
2023-01-31T02:33:22.757Z,1.58
2023-01-31T02:35:50.247Z,0.60
2023-01-31T02:38:28.427Z,0.68
2023-01-31T02:41:00.021Z,0.93
2023-01-31T02:43:33.881Z,0.85
2023-01-31T02:46:11.564Z,1.05
2023-01-31T02:48:38.774Z,0.82
2023-01-31T02:51:09.002Z,0.45
2023-01-31T02:53:37.934Z,1.08
2023-01-31T02:58:55.103Z,0.70
2023-01-31T03:01:24.656Z,0.90
2023-01-31T03:03:52.891Z,0.50
2023-01-31T03:06:27.183Z,0.60
2023-01-31T03:09:07.204Z,0.88
2023-01-31T03:12:01.219Z,0.90
2023-01-31T03:14:36.430Z,1.20
2023-01-31T03:17:34.205Z,0.65
2023-01-31T03:20:06.487Z,0.60
2023-01-31T03:22:35.629Z,1.00
2023-01-31T03:25:05.548Z,0.75
2023-01-31T03:27:33.720Z,0.88
2023-01-31T03:30:05.408Z,0.80
2023-01-31T03:32:38.265Z,0.77
2023-01-31T03:35:05.878Z,0.70
2023-01-31T03:37:40.231Z,0.57
2023-01-31T03:40:17.645Z,0.80
2023-01-31T03:42:52.317Z,1.45
2023-01-31T03:45:24.181Z,0.82
2023-01-31T03:47:51.781Z,0.77
2023-01-31T03:50:24.472Z,0.68
2023-01-31T03:52:54.520Z,1.25
2023-01-31T03:55:25.291Z,0.68
2023-01-31T03:57:55.851Z,0.50
2023-01-31T04:00:25.233Z,0.52
2023-01-31T04:02:54.979Z,0.75
2023-01-31T04:05:30.517Z,0.50
2023-01-31T04:07:58.859Z,0.90
2023-01-31T04:10:26.526Z,0.50
2023-01-31T04:12:54.109Z,0.60
2023-01-31T04:15:22.250Z,0.85
2023-01-31T04:17:49.775Z,1.10
2023-01-31T04:20:17.093Z,0.90
2023-01-31T04:22:44.331Z,0.70
2023-01-31T04:25:12.862Z,0.57
2023-01-31T04:27:40.123Z,0.65
2023-01-31T04:30:07.757Z,0.77
2023-01-31T04:32:35.012Z,0.47
2023-01-31T04:35:02.669Z,1.05
2023-01-31T04:37:30.044Z,1.10
2023-01-31T04:39:57.265Z,0.50
2023-01-31T04:42:24.559Z,0.85
2023-01-31T04:44:51.794Z,1.10
2023-01-31T04:47:19.055Z,0.50
2023-01-31T04:49:46.266Z,0.80
2023-01-31T04:52:13.547Z,1.10
2023-01-31T04:54:41.956Z,0.50
2023-01-31T04:57:09.207Z,1.13
2023-01-31T04:59:36.374Z,0.98
2023-01-31T05:02:03.651Z,0.40
2023-01-31T05:04:30.840Z,0.57
2023-01-31T05:06:58.153Z,0.73
2023-01-31T05:09:26.081Z,0.60
2023-01-31T05:11:53.310Z,0.50
2023-01-31T05:14:21.195Z,0.60
2023-01-31T05:16:48.528Z,0.45
2023-01-31T05:19:16.182Z,0.68
2023-01-31T05:21:58.301Z,0.77
2023-01-31T05:24:26.743Z,0.57
2023-01-31T05:26:58.397Z,0.60
2023-01-31T05:29:29.575Z,0.40
2023-01-31T05:31:58.205Z,0.75
2023-01-31T05:34:25.762Z,0.50
2023-01-31T05:36:53.642Z,1.38
2023-01-31T05:39:21.031Z,1.33
2023-01-31T05:41:48.210Z,0.70
2023-01-31T05:44:16.383Z,0.68
2023-01-31T05:46:43.572Z,0.70
2023-01-31T05:49:11.209Z,0.50
2023-01-31T05:51:38.533Z,0.47
2023-01-31T05:54:05.843Z,0.50
2023-01-31T05:56:33.487Z,0.40
2023-01-31T05:59:02.818Z,0.50
2023-01-31T06:01:30.109Z,0.60
2023-01-31T06:03:57.313Z,0.60
2023-01-31T06:06:24.595Z,0.73
2023-01-31T06:08:51.840Z,0.73
2023-01-31T06:11:19.071Z,0.30
2023-01-31T06:13:46.350Z,0.60
2023-01-31T06:16:13.733Z,0.38
2023-01-31T06:18:41.030Z,0.65
2023-01-31T06:21:08.276Z,0.40
2023-01-31T06:23:35.596Z,0.60
2023-01-31T06:26:02.930Z,0.80
2023-01-31T06:28:30.678Z,0.60
2023-01-31T06:30:58.045Z,0.70
2023-01-31T06:33:42.226Z,1.02
2023-01-31T06:36:12.000Z,0.45
2023-01-31T06:38:39.325Z,0.70
2023-01-31T06:41:06.670Z,0.70
2023-01-31T06:43:33.929Z,0.50
2023-01-31T06:46:01.210Z,0.40
2023-01-31T06:48:28.470Z,0.38
2023-01-31T06:50:55.755Z,0.40
2023-01-31T06:53:23.040Z,0.60
2023-01-31T06:55:50.279Z,0.57
2023-01-31T06:58:20.655Z,0.43
2023-01-31T07:00:48.083Z,0.50
2023-01-31T07:03:15.338Z,0.82
2023-01-31T07:05:42.802Z,0.50
2023-01-31T07:08:10.209Z,0.50
2023-01-31T07:10:37.407Z,0.50
2023-01-31T07:13:04.654Z,0.50
2023-01-31T07:15:32.495Z,0.60
2023-01-31T07:18:00.007Z,0.60
2023-01-31T07:20:27.720Z,0.50
2023-01-31T07:22:58.261Z,0.60
2023-01-31T07:25:26.219Z,0.43
2023-01-31T07:27:53.522Z,0.60
2023-01-31T07:30:20.817Z,0.45
2023-01-31T07:32:48.108Z,0.32
2023-01-31T07:35:15.370Z,0.60
2023-01-31T07:37:43.574Z,0.50
2023-01-31T07:40:11.937Z,0.50
2023-01-31T07:42:39.275Z,0.50
2023-01-31T07:45:22.466Z,0.50
2023-01-31T07:47:57.919Z,0.52
2023-01-31T07:50:27.143Z,0.40
2023-01-31T07:52:54.450Z,0.47
2023-01-31T07:55:22.157Z,0.50
2023-01-31T07:57:49.487Z,0.80
2023-01-31T08:00:36.835Z,0.47
2023-01-31T08:03:22.919Z,0.60
2023-01-31T08:05:50.163Z,0.40
2023-01-31T08:08:17.518Z,0.40
2023-01-31T08:10:47.323Z,0.47
2023-01-31T08:13:14.687Z,0.85
2023-01-31T08:15:41.904Z,1.10
2023-01-31T08:18:09.195Z,0.88
2023-01-31T08:20:39.618Z,0.50
2023-01-31T08:23:06.975Z,0.52
2023-01-31T08:25:34.207Z,0.40
2023-01-31T08:28:01.452Z,0.57
2023-01-31T08:30:29.753Z,0.68
2023-01-31T08:32:57.207Z,0.60
2023-01-31T08:35:26.288Z,0.40
2023-01-31T08:38:00.826Z,1.10
2023-01-31T08:40:34.326Z,0.80
2023-01-31T08:43:01.639Z,0.65
2023-01-31T08:45:29.474Z,0.77
2023-01-31T08:47:57.503Z,0.68
2023-01-31T08:50:28.100Z,0.50
2023-01-31T08:52:55.436Z,0.50
2023-01-31T08:55:23.051Z,0.63
2023-01-31T08:57:59.371Z,0.80
2023-01-31T09:00:27.869Z,0.40
2023-01-31T09:02:59.137Z,1.08
2023-01-31T09:05:27.289Z,0.75
2023-01-31T09:07:54.562Z,0.90
2023-01-31T09:10:22.819Z,0.50
2023-01-31T09:12:50.064Z,0.60
2023-01-31T09:15:17.601Z,1.10
2023-01-31T09:17:44.885Z,0.77
2023-01-31T09:20:12.292Z,0.50
2023-01-31T09:22:39.512Z,0.70
2023-01-31T09:25:07.262Z,0.60
2023-01-31T09:27:35.909Z,0.68
2023-01-31T09:30:05.391Z,0.82
2023-01-31T09:32:33.397Z,0.40
2023-01-31T09:35:00.676Z,0.73
2023-01-31T09:37:29.964Z,0.90
2023-01-31T09:39:57.609Z,0.80
2023-01-31T09:42:30.861Z,0.82
2023-01-31T09:45:03.427Z,0.73
2023-01-31T09:47:51.379Z,1.20
2023-01-31T09:50:21.128Z,1.60
2023-01-31T09:52:49.312Z,1.05
2023-01-31T09:55:17.516Z,1.40
2023-01-31T09:57:56.989Z,1.55
2023-01-31T10:00:40.588Z,1.65
2023-01-31T10:03:20.404Z,0.98
2023-01-31T10:05:57.707Z,0.95
2023-01-31T10:08:46.639Z,1.02
2023-01-31T10:11:46.543Z,0.80
2023-01-31T10:14:35.226Z,1.42
2023-01-31T10:17:29.191Z,0.68
2023-01-31T10:19:56.507Z,0.60
2023-01-31T10:22:31.420Z,0.73
2023-01-31T10:25:00.361Z,0.60
2023-01-31T10:30:20.546Z,0.40
2023-01-31T10:32:51.829Z,0.57
2023-01-31T10:35:25.484Z,0.70
2023-01-31T10:37:56.662Z,0.55
2023-01-31T10:40:26.775Z,0.80
2023-01-31T10:43:00.470Z,0.70
2023-01-31T10:45:31.744Z,0.90
2023-01-31T10:48:19.698Z,1.58
2023-01-31T10:50:47.435Z,1.63
2023-01-31T10:53:14.682Z,0.90
2023-01-31T10:56:02.218Z,2.10
2023-01-31T10:58:29.489Z,1.27
2023-01-31T11:00:56.768Z,0.80
2023-01-31T11:03:24.099Z,0.70
2023-01-31T11:05:55.517Z,0.75
2023-01-31T11:08:28.719Z,0.90
2023-01-31T11:10:57.990Z,1.00
2023-01-31T11:13:25.306Z,0.80
2023-01-31T11:15:54.383Z,1.48
2023-01-31T11:18:30.025Z,0.90
2023-01-31T11:20:57.387Z,0.77
2023-01-31T11:23:25.963Z,1.33
2023-01-31T11:25:54.873Z,0.80
2023-01-31T11:30:50.952Z,1.38
2023-01-31T11:33:37.223Z,2.17
2023-01-31T11:36:15.025Z,1.00
2023-01-31T11:38:42.307Z,1.45
2023-01-31T11:41:33.837Z,0.77
2023-01-31T11:44:17.770Z,1.00
2023-01-31T11:47:08.053Z,0.90
2023-01-31T11:49:41.413Z,1.08
2023-01-31T11:52:16.944Z,0.70
2023-01-31T11:54:47.358Z,1.05
2023-01-31T11:57:15.734Z,0.50
2023-01-31T11:59:43.209Z,1.02
2023-01-31T12:02:36.798Z,0.35
2023-01-31T12:05:14.554Z,0.60
2023-01-31T12:07:44.769Z,0.80
2023-01-31T12:10:26.727Z,1.00
2023-01-31T12:12:54.034Z,0.93
2023-01-31T12:15:21.570Z,1.05
2023-01-31T12:17:50.315Z,0.70
2023-01-31T12:20:28.399Z,0.65
2023-01-31T12:23:13.528Z,0.45
2023-01-31T12:25:50.506Z,0.70
2023-01-31T12:28:36.328Z,0.82
2023-01-31T12:31:09.490Z,0.95
2023-01-31T12:34:17.974Z,0.60
2023-01-31T12:37:08.110Z,0.40
2023-01-31T12:39:38.423Z,0.50
2023-01-31T12:42:26.857Z,0.50
2023-01-31T12:44:57.062Z,0.68
2023-01-31T12:47:27.127Z,0.68
2023-01-31T12:49:58.502Z,0.40
2023-01-31T12:52:51.244Z,0.43
2023-01-31T12:55:21.949Z,0.65
2023-01-31T12:58:04.804Z,0.60
2023-01-31T13:00:32.159Z,0.70
2023-01-31T13:03:22.497Z,1.00
2023-01-31T13:05:55.375Z,0.65
2023-01-31T13:08:23.983Z,0.80
2023-01-31T13:10:56.949Z,0.73
2023-01-31T13:13:44.184Z,0.47
2023-01-31T13:16:21.797Z,0.57
2023-01-31T13:18:50.661Z,0.47
2023-01-31T13:21:19.526Z,0.82
2023-01-31T13:23:53.198Z,0.70
2023-01-31T13:26:22.376Z,0.77
2023-01-31T13:28:52.787Z,0.70
2023-01-31T13:31:22.336Z,0.80
2023-01-31T13:34:00.953Z,0.75
2023-01-31T13:36:31.026Z,0.60
2023-01-31T13:38:58.735Z,0.85
2023-01-31T13:41:30.860Z,0.70
2023-01-31T13:43:58.669Z,1.48
2023-01-31T13:46:29.769Z,6.18
2023-01-31T13:49:00.186Z,1.88
2023-01-31T13:51:30.233Z,1.20
2023-01-31T13:54:05.077Z,1.17
2023-01-31T13:56:37.126Z,1.40
2023-01-31T13:59:07.749Z,1.00
2023-01-31T14:01:36.500Z,0.88
2023-01-31T14:04:15.569Z,1.13
2023-01-31T14:07:14.199Z,0.80
2023-01-31T14:09:44.478Z,0.98
2023-01-31T14:12:11.681Z,0.65
2023-01-31T14:14:41.690Z,1.00
2023-01-31T14:17:27.075Z,1.35
2023-01-31T14:19:57.059Z,1.42
2023-01-31T14:22:39.649Z,1.10
2023-01-31T14:25:09.649Z,1.13
2023-01-31T14:27:36.880Z,0.85
2023-01-31T14:30:07.383Z,1.15
2023-01-31T14:32:37.565Z,1.27
2023-01-31T14:35:14.156Z,1.00
2023-01-31T14:37:47.264Z,3.92
2023-01-31T14:40:14.496Z,1.50
2023-01-31T14:42:41.778Z,1.60
2023-01-31T14:45:14.774Z,1.10
2023-01-31T14:48:00.254Z,2.60
2023-01-31T14:50:47.483Z,1.30
2023-01-31T14:53:17.690Z,1.83
2023-01-31T14:56:04.735Z,1.48
2023-01-31T14:58:34.295Z,1.10
2023-01-31T15:01:03.291Z,1.27
2023-01-31T15:06:43.996Z,2.03
2023-01-31T15:09:17.494Z,1.95
2023-01-31T15:11:48.131Z,1.45
2023-01-31T15:14:35.521Z,1.75
2023-01-31T15:17:32.077Z,1.52
2023-01-31T15:20:14.871Z,1.38
2023-01-31T15:22:43.453Z,1.33
2023-01-31T15:25:22.474Z,1.35
2023-01-31T15:27:50.050Z,1.10
2023-01-31T15:30:17.269Z,1.58
2023-01-31T15:32:50.685Z,1.48
2023-01-31T15:35:23.361Z,3.78
2023-01-31T15:37:57.013Z,2.20
2023-01-31T15:40:25.867Z,1.95
2023-01-31T15:42:53.196Z,2.03
2023-01-31T15:45:20.965Z,1.67
2023-01-31T15:47:57.348Z,1.30
2023-01-31T15:50:24.594Z,1.77
2023-01-31T15:52:51.825Z,1.90
2023-01-31T15:55:20.276Z,1.60
2023-01-31T15:57:55.139Z,1.85
2023-01-31T16:00:30.489Z,1.70
2023-01-31T16:03:00.972Z,1.60
2023-01-31T16:05:35.587Z,2.35
2023-01-31T16:08:03.994Z,2.03
2023-01-31T16:10:31.612Z,2.03
2023-01-31T16:12:59.841Z,3.40
2023-01-31T16:15:28.993Z,2.65
2023-01-31T16:17:58.055Z,2.70
2023-01-31T16:20:34.403Z,6.18
2023-01-31T16:23:01.630Z,7.80
2023-01-31T16:25:29.789Z,3.85
2023-01-31T16:28:02.302Z,3.80
2023-01-31T16:30:30.607Z,5.25
2023-01-31T16:32:58.067Z,3.67
2023-01-31T16:35:27.461Z,3.65
2023-01-31T16:38:02.540Z,4.72
2023-01-31T16:40:30.998Z,4.15
2023-01-31T16:43:28.632Z,1.90
2023-01-31T16:46:00.440Z,1.15
2023-01-31T16:48:29.270Z,1.75
2023-01-31T16:50:57.253Z,1.55
2023-01-31T16:53:29.636Z,2.15
2023-01-31T16:56:15.261Z,1.30
2023-01-31T16:58:50.446Z,1.70
2023-01-31T17:01:20.489Z,1.58
2023-01-31T17:03:58.875Z,1.27
2023-01-31T17:06:26.074Z,1.83
2023-01-31T17:08:53.362Z,1.20
2023-01-31T17:11:40.937Z,1.67
2023-01-31T17:14:08.808Z,1.27
2023-01-31T17:16:36.010Z,1.87
2023-01-31T17:19:03.255Z,0.93
2023-01-31T17:21:32.923Z,1.85
2023-01-31T17:24:00.176Z,1.35
2023-01-31T17:26:27.474Z,1.45
2023-01-31T17:29:01.928Z,1.30
2023-01-31T17:31:31.423Z,1.27
2023-01-31T17:36:25.723Z,1.85
2023-01-31T17:38:53.185Z,1.50
2023-01-31T17:41:21.365Z,0.77
2023-01-31T17:43:48.560Z,1.35
2023-01-31T17:46:16.819Z,1.08
2023-01-31T17:48:44.261Z,0.93
2023-01-31T17:51:11.844Z,1.15
2023-01-31T17:53:47.923Z,0.80
2023-01-31T17:56:16.821Z,1.00
2023-01-31T17:58:44.127Z,1.00
2023-01-31T18:01:13.939Z,1.08
2023-01-31T18:03:41.632Z,1.50
2023-01-31T18:06:09.690Z,0.90
2023-01-31T18:08:36.943Z,1.13
2023-01-31T18:11:11.887Z,1.10
2023-01-31T18:13:39.743Z,0.98
2023-01-31T18:16:11.345Z,1.38
2023-01-31T18:18:40.632Z,1.15
2023-01-31T18:21:11.716Z,0.95
2023-01-31T18:23:38.945Z,1.00
2023-01-31T18:26:07.015Z,1.23
2023-01-31T18:28:35.054Z,0.90
2023-01-31T18:31:07.471Z,0.70
2023-01-31T18:33:34.759Z,1.27
2023-01-31T18:36:02.176Z,1.13
2023-01-31T18:38:30.215Z,1.00
2023-01-31T18:40:58.561Z,1.40
2023-01-31T18:43:26.402Z,1.17
2023-01-31T18:45:53.566Z,1.48
2023-01-31T18:48:20.823Z,1.13
2023-01-31T18:50:48.025Z,2.25
2023-01-31T18:53:15.264Z,1.20
2023-01-31T18:55:42.489Z,0.98
2023-01-31T18:58:09.732Z,0.93
2023-01-31T19:00:36.987Z,0.95
2023-01-31T19:03:04.614Z,0.80
2023-01-31T19:05:31.871Z,0.95
2023-01-31T19:07:59.075Z,1.10
2023-01-31T19:10:26.392Z,1.15
2023-01-31T19:12:53.608Z,0.70
2023-01-31T19:15:21.128Z,1.50
2023-01-31T19:17:48.520Z,1.10
2023-01-31T19:20:15.819Z,0.70
2023-01-31T19:22:43.085Z,1.05
2023-01-31T19:25:11.089Z,1.20
2023-01-31T19:27:40.674Z,1.25
2023-01-31T19:30:08.202Z,1.20
2023-01-31T19:32:35.417Z,1.33
2023-01-31T19:35:02.889Z,0.77
2023-01-31T19:37:30.396Z,1.27
2023-01-31T19:39:57.627Z,1.40
2023-01-31T19:42:25.553Z,2.15
2023-01-31T19:44:52.801Z,2.20
2023-01-31T19:47:20.076Z,0.70
2023-01-31T19:49:47.329Z,1.10
2023-01-31T19:52:14.531Z,1.10
2023-01-31T19:54:41.801Z,0.93
2023-01-31T19:57:08.945Z,0.80
2023-01-31T19:59:36.245Z,1.45
2023-01-31T20:02:03.519Z,0.95
2023-01-31T20:04:32.441Z,1.40
2023-01-31T20:07:00.761Z,0.90
2023-01-31T20:09:27.998Z,1.10
2023-01-31T20:11:55.364Z,1.00
2023-01-31T20:14:22.752Z,0.70
2023-01-31T20:16:50.146Z,0.50
2023-01-31T20:19:19.065Z,0.50
2023-01-31T20:21:47.489Z,0.90
2023-01-31T20:24:14.787Z,0.50
2023-01-31T20:26:42.292Z,0.88
2023-01-31T20:29:10.423Z,0.50
2023-01-31T20:31:37.687Z,0.60
2023-01-31T20:34:06.624Z,3.35
2023-01-31T20:39:01.151Z,0.47
2023-01-31T20:41:29.537Z,0.77
2023-01-31T20:43:57.887Z,0.80
2023-01-31T20:46:25.248Z,0.93
2023-01-31T20:48:52.854Z,2.45
2023-01-31T20:51:20.083Z,1.50
2023-01-31T20:53:47.365Z,2.53
2023-01-31T20:56:14.695Z,1.40
2023-01-31T20:58:43.551Z,1.73
2023-01-31T21:01:11.299Z,1.13
2023-01-31T21:03:38.660Z,0.88
2023-01-31T21:06:07.408Z,1.25
2023-01-31T21:08:38.134Z,1.13
2023-01-31T21:11:07.214Z,1.40
2023-01-31T21:13:34.500Z,1.27
2023-01-31T21:16:03.489Z,1.80
2023-01-31T21:18:32.482Z,1.40
2023-01-31T21:23:26.747Z,1.30
2023-01-31T21:25:54.506Z,2.08
2023-01-31T21:28:26.553Z,1.10
2023-01-31T21:31:03.718Z,1.63
2023-01-31T21:33:31.512Z,1.60
2023-01-31T21:36:00.562Z,1.35
2023-01-31T21:38:27.927Z,1.73
2023-01-31T21:41:15.126Z,1.55
2023-01-31T21:43:42.462Z,1.80
2023-01-31T21:46:10.332Z,1.63
2023-01-31T21:48:37.780Z,1.80
2023-01-31T21:51:06.770Z,1.55
2023-01-31T21:56:02.079Z,1.67
2023-01-31T21:58:29.439Z,1.73
2023-01-31T22:01:34.483Z,2.13
2023-01-31T22:04:01.818Z,1.70
2023-01-31T22:06:31.745Z,2.25
2023-01-31T22:08:59.819Z,1.27
2023-01-31T22:11:32.799Z,1.83
2023-01-31T22:14:01.276Z,2.00
2023-01-31T22:16:28.540Z,3.53
2023-01-31T22:18:55.762Z,1.80
2023-01-31T22:21:27.421Z,1.88
2023-01-31T22:23:56.231Z,2.40
2023-01-31T22:26:28.315Z,1.98
2023-01-31T22:28:56.660Z,2.58
2023-01-31T22:31:24.346Z,1.42
2023-01-31T22:33:51.603Z,1.67
2023-01-31T22:36:19.387Z,1.25
2023-01-31T22:38:46.612Z,0.93
2023-01-31T22:41:15.233Z,2.65
2023-01-31T22:43:43.460Z,1.20
2023-01-31T22:46:14.911Z,2.03
2023-01-31T22:48:42.465Z,1.10
2023-01-31T22:51:14.660Z,1.67
2023-01-31T22:53:42.184Z,1.70
2023-01-31T22:56:11.924Z,1.88
2023-01-31T22:58:39.169Z,1.05
2023-01-31T23:01:17.123Z,0.63
2023-01-31T23:03:44.815Z,1.10
2023-01-31T23:06:12.328Z,1.05
2023-01-31T23:08:40.133Z,1.10
2023-01-31T23:11:11.827Z,1.45
2023-01-31T23:13:39.409Z,1.13
2023-01-31T23:16:07.823Z,1.10
2023-01-31T23:18:35.621Z,1.45
2023-01-31T23:21:06.802Z,1.23
2023-01-31T23:23:34.148Z,1.33
2023-01-31T23:26:01.596Z,1.20
2023-01-31T23:28:28.973Z,0.70
2023-01-31T23:30:56.356Z,1.17
2023-01-31T23:33:23.649Z,1.02
2023-01-31T23:35:51.163Z,1.30
2023-01-31T23:38:18.373Z,1.02
2023-01-31T23:40:50.554Z,1.20
2023-01-31T23:43:17.820Z,1.10
2023-01-31T23:45:45.089Z,1.10
2023-01-31T23:48:12.328Z,1.13
2023-01-31T23:50:39.586Z,1.20
2023-01-31T23:53:06.826Z,1.20
2023-01-31T23:55:34.043Z,1.00
2023-01-31T23:58:01.380Z,1.30
